createdAt,value
2023-02-03T00:02:05.253Z,6.20
2023-02-03T00:04:34.523Z,5.20
2023-02-03T00:07:03.304Z,5.50
2023-02-03T00:09:32.399Z,6.50
2023-02-03T00:12:01.596Z,5.20
2023-02-03T00:14:30.591Z,6.20
2023-02-03T00:16:59.787Z,5.90
2023-02-03T00:19:28.779Z,5.90
2023-02-03T00:21:58.001Z,6.20
2023-02-03T00:24:27.499Z,5.30
2023-02-03T00:26:56.691Z,6.10
2023-02-03T00:29:26.196Z,6.70
2023-02-03T00:31:55.373Z,6.80
2023-02-03T00:34:24.384Z,5.80
2023-02-03T00:36:53.364Z,5.20
2023-02-03T00:39:22.663Z,5.60
2023-02-03T00:41:51.563Z,5.90
2023-02-03T00:44:21.163Z,4.90
2023-02-03T00:46:50.989Z,5.30
2023-02-03T00:49:20.083Z,5.00
2023-02-03T00:51:49.272Z,5.50
2023-02-03T00:54:18.272Z,5.10
2023-02-03T00:56:46.947Z,5.00
2023-02-03T00:59:15.624Z,4.50
2023-02-03T01:01:45.140Z,5.20
2023-02-03T01:04:14.436Z,4.40
2023-02-03T01:06:43.529Z,4.20
2023-02-03T01:09:12.741Z,5.30
2023-02-03T01:11:41.615Z,4.50
2023-02-03T01:14:10.792Z,5.10
2023-02-03T01:16:40.166Z,4.70
2023-02-03T01:19:09.925Z,4.60
2023-02-03T01:21:39.127Z,4.90
2023-02-03T01:24:09.860Z,5.40
2023-02-03T01:26:41.212Z,5.70
2023-02-03T01:29:10.305Z,4.30
2023-02-03T01:31:40.569Z,6.00
2023-02-03T01:34:14.043Z,5.00
2023-02-03T01:36:43.074Z,5.50
2023-02-03T01:39:12.414Z,6.40
2023-02-03T01:41:41.815Z,5.50
2023-02-03T01:44:35.897Z,6.80
2023-02-03T01:47:04.434Z,5.80
2023-02-03T01:49:36.040Z,6.70
2023-02-03T01:52:04.928Z,6.60
2023-02-03T01:54:35.982Z,6.10
2023-02-03T01:57:08.129Z,5.30
2023-02-03T01:59:37.131Z,6.30
2023-02-03T02:02:06.845Z,5.80
2023-02-03T02:04:56.454Z,5.50
2023-02-03T02:07:25.912Z,5.20
2023-02-03T02:09:55.533Z,5.80
2023-02-03T02:12:24.518Z,4.40
2023-02-03T02:14:53.194Z,4.60
2023-02-03T02:17:58.438Z,6.70
2023-02-03T02:20:27.411Z,5.50
2023-02-03T02:23:11.475Z,5.20
2023-02-03T02:25:53.476Z,5.40
2023-02-03T02:28:44.176Z,5.60
2023-02-03T02:31:47.648Z,6.30
2023-02-03T02:34:25.167Z,5.70
2023-02-03T02:36:59.608Z,6.40
2023-02-03T02:39:40.628Z,6.00
2023-02-03T02:42:37.333Z,6.50
2023-02-03T02:45:17.502Z,6.40
2023-02-03T02:47:47.272Z,7.70
2023-02-03T02:50:26.098Z,6.10
2023-02-03T02:52:55.190Z,5.30
2023-02-03T02:55:28.319Z,5.50
2023-02-03T02:58:02.733Z,5.60
2023-02-03T03:00:31.948Z,6.30
2023-02-03T03:03:13.184Z,5.40
2023-02-03T03:05:42.409Z,6.80
2023-02-03T03:08:11.262Z,7.00
2023-02-03T03:10:41.080Z,6.10
2023-02-03T03:13:12.342Z,6.20
2023-02-03T03:15:43.136Z,5.50
2023-02-03T03:18:20.087Z,5.90
2023-02-03T03:20:48.548Z,5.80
2023-02-03T03:23:23.129Z,5.70
2023-02-03T03:25:54.679Z,5.50
2023-02-03T03:30:56.883Z,5.80
2023-02-03T03:33:25.564Z,5.90
2023-02-03T03:36:04.080Z,7.10
2023-02-03T03:38:39.927Z,6.30
2023-02-03T03:41:15.928Z,6.30
2023-02-03T03:43:44.265Z,6.00
2023-02-03T03:46:34.594Z,6.30
2023-02-03T03:49:04.366Z,5.90
2023-02-03T03:51:45.548Z,6.90
2023-02-03T03:54:16.388Z,7.10
2023-02-03T03:56:59.199Z,7.00
2023-02-03T03:59:30.872Z,5.80
2023-02-03T04:04:29.255Z,6.10
2023-02-03T04:06:58.448Z,5.20
2023-02-03T04:09:27.543Z,5.50
2023-02-03T04:12:02.892Z,5.70
2023-02-03T04:14:39.052Z,5.30
2023-02-03T04:17:09.073Z,5.40
2023-02-03T04:19:38.543Z,5.00
2023-02-03T04:22:09.911Z,4.10
2023-02-03T04:24:38.607Z,5.00
2023-02-03T04:27:07.500Z,4.70
2023-02-03T04:29:36.169Z,4.70
2023-02-03T04:32:05.168Z,5.10
2023-02-03T04:34:35.968Z,4.70
2023-02-03T04:37:04.907Z,5.90
2023-02-03T04:39:34.624Z,7.10
2023-02-03T04:42:03.520Z,7.60
2023-02-03T04:44:32.786Z,6.00
2023-02-03T04:47:01.590Z,4.80
2023-02-03T04:49:31.187Z,5.10
2023-02-03T04:51:59.869Z,4.90
2023-02-03T04:54:28.877Z,4.80
2023-02-03T04:56:57.856Z,4.40
2023-02-03T04:59:26.956Z,4.00
2023-02-03T05:01:56.352Z,3.80
2023-02-03T05:04:25.858Z,4.50
2023-02-03T05:06:56.488Z,4.00
2023-02-03T05:09:25.991Z,3.40
2023-02-03T05:11:58.902Z,4.10
2023-02-03T05:14:27.537Z,4.60
2023-02-03T05:16:56.720Z,3.70
2023-02-03T05:19:26.368Z,4.60
2023-02-03T05:21:55.467Z,4.20
2023-02-03T05:24:24.249Z,6.50
2023-02-03T05:26:53.142Z,6.10
2023-02-03T05:29:22.237Z,5.30
2023-02-03T05:31:51.159Z,5.60
2023-02-03T05:34:20.016Z,5.40
2023-02-03T05:36:48.804Z,5.10
2023-02-03T05:39:18.185Z,4.90
2023-02-03T05:41:53.663Z,4.30
2023-02-03T05:44:24.341Z,3.60
2023-02-03T05:46:53.821Z,3.50
2023-02-03T05:49:24.318Z,3.60
2023-02-03T05:51:55.002Z,4.20
2023-02-03T05:54:24.656Z,4.00
2023-02-03T05:56:53.554Z,4.30
2023-02-03T05:59:22.543Z,4.10
2023-02-03T06:01:51.358Z,4.50
2023-02-03T06:04:20.444Z,4.90
2023-02-03T06:06:50.234Z,4.30
2023-02-03T06:09:20.384Z,4.60
2023-02-03T06:11:49.663Z,4.70
2023-02-03T06:14:18.429Z,5.10
2023-02-03T06:16:47.767Z,4.50
2023-02-03T06:19:16.829Z,4.70
2023-02-03T06:21:46.234Z,4.70
2023-02-03T06:24:15.229Z,4.60
2023-02-03T06:26:44.605Z,4.80
2023-02-03T06:29:13.518Z,5.30
2023-02-03T06:31:42.800Z,5.20
2023-02-03T06:34:12.228Z,4.80
2023-02-03T06:36:41.794Z,4.90
2023-02-03T06:39:11.013Z,6.70
2023-02-03T06:41:40.527Z,5.20
2023-02-03T06:44:09.620Z,4.50
2023-02-03T06:46:39.024Z,5.20
2023-02-03T06:49:08.065Z,4.30
2023-02-03T06:51:37.762Z,5.30
2023-02-03T06:54:08.051Z,4.10
2023-02-03T06:56:37.151Z,4.70
2023-02-03T06:59:06.143Z,5.20
2023-02-03T07:01:37.657Z,5.20
2023-02-03T07:04:06.589Z,5.60
2023-02-03T07:06:35.999Z,6.20
2023-02-03T07:09:05.552Z,7.20
2023-02-03T07:11:34.180Z,9.30
2023-02-03T07:14:03.586Z,9.60
2023-02-03T07:16:34.619Z,10.90
2023-02-03T07:19:04.433Z,8.80
2023-02-03T07:21:33.729Z,7.50
2023-02-03T07:24:03.564Z,11.40
2023-02-03T07:26:32.537Z,10.60
2023-02-03T07:29:01.731Z,7.90
2023-02-03T07:31:30.726Z,6.50
2023-02-03T07:34:01.459Z,6.90
2023-02-03T07:36:30.860Z,7.70
2023-02-03T07:38:59.750Z,8.00
2023-02-03T07:41:28.567Z,8.20
2023-02-03T07:43:57.544Z,7.20
2023-02-03T07:46:26.673Z,7.20
2023-02-03T07:48:57.459Z,7.50
2023-02-03T07:51:27.067Z,7.10
2023-02-03T07:53:56.982Z,8.70
2023-02-03T07:56:26.401Z,7.80
2023-02-03T07:58:56.094Z,7.80
2023-02-03T08:01:25.028Z,8.50
2023-02-03T08:03:55.201Z,7.90
2023-02-03T08:06:24.301Z,7.80
2023-02-03T08:08:54.511Z,8.20
2023-02-03T08:11:23.490Z,7.50
2023-02-03T08:13:52.377Z,8.00
2023-02-03T08:16:21.683Z,7.90
2023-02-03T08:18:50.694Z,7.50
2023-02-03T08:21:19.794Z,7.80
2023-02-03T08:23:48.903Z,8.40
2023-02-03T08:26:18.014Z,10.10
2023-02-03T08:28:50.563Z,9.90
2023-02-03T08:31:19.695Z,8.80
2023-02-03T08:33:48.747Z,10.10
2023-02-03T08:40:33.539Z,12.70
2023-02-03T08:43:02.531Z,12.70
2023-02-03T08:45:31.537Z,10.10
2023-02-03T08:48:01.139Z,10.40
2023-02-03T08:50:30.456Z,13.30
2023-02-03T08:53:00.283Z,13.60
2023-02-03T08:59:36.630Z,9.80
2023-02-03T09:02:49.761Z,9.70
2023-02-03T09:05:19.312Z,8.20
2023-02-03T09:07:50.532Z,8.60
2023-02-03T09:10:19.920Z,8.70
2023-02-03T09:12:49.831Z,9.20
2023-02-03T09:15:19.839Z,9.40
2023-02-03T09:17:49.380Z,9.40
2023-02-03T09:20:21.577Z,10.00
2023-02-03T09:22:50.822Z,8.30
2023-02-03T09:25:20.146Z,8.60
2023-02-03T09:27:49.450Z,9.30
2023-02-03T09:30:18.643Z,8.90
2023-02-03T09:32:54.303Z,8.50
2023-02-03T09:35:22.959Z,8.00
2023-02-03T09:37:53.267Z,8.20
2023-02-03T09:40:29.659Z,8.40
2023-02-03T09:43:03.743Z,9.70
2023-02-03T09:45:32.548Z,11.50
2023-02-03T09:48:05.987Z,10.80
2023-02-03T09:50:34.828Z,9.90
2023-02-03T09:53:06.629Z,11.40
2023-02-03T09:58:16.136Z,9.40
2023-02-03T10:00:48.476Z,10.70
2023-02-03T10:03:52.623Z,7.40
2023-02-03T10:06:24.789Z,7.00
2023-02-03T10:09:02.591Z,5.90
2023-02-03T10:11:38.949Z,6.40
2023-02-03T10:14:34.378Z,6.70
2023-02-03T10:17:26.543Z,5.80
2023-02-03T10:20:22.342Z,5.30
2023-02-03T10:22:57.468Z,5.20
2023-02-03T10:25:39.326Z,4.80
2023-02-03T10:28:18.327Z,5.60
2023-02-03T10:30:50.119Z,5.00
2023-02-03T10:33:19.849Z,4.60
2023-02-03T10:35:59.319Z,4.40
2023-02-03T10:38:47.210Z,6.10
2023-02-03T10:41:16.930Z,7.20
2023-02-03T10:43:53.309Z,5.60
2023-02-03T10:46:28.254Z,5.80
2023-02-03T10:48:57.450Z,5.30
2023-02-03T10:51:28.058Z,5.30
2023-02-03T10:53:59.997Z,5.90
2023-02-03T10:56:32.289Z,4.20
2023-02-03T10:59:01.288Z,3.40
2023-02-03T11:01:45.239Z,3.80
2023-02-03T11:04:31.338Z,3.60
2023-02-03T11:07:02.313Z,7.10
2023-02-03T11:09:39.333Z,7.00
2023-02-03T11:12:14.170Z,9.00
2023-02-03T11:14:54.319Z,8.70
2023-02-03T11:17:29.775Z,6.60
2023-02-03T11:20:06.698Z,7.50
2023-02-03T11:22:39.529Z,6.00
2023-02-03T11:25:19.714Z,6.10
2023-02-03T11:27:49.834Z,4.30
2023-02-03T11:30:30.585Z,5.40
2023-02-03T11:33:03.352Z,4.90
2023-02-03T11:35:33.873Z,3.60
2023-02-03T11:38:02.785Z,3.80
2023-02-03T11:40:34.312Z,5.20
2023-02-03T11:43:11.915Z,7.10
2023-02-03T11:45:52.175Z,11.20
2023-02-03T11:48:36.236Z,10.50
2023-02-03T11:51:42.488Z,13.10
2023-02-03T11:54:17.522Z,13.60
2023-02-03T11:57:05.584Z,12.80
2023-02-03T11:59:44.684Z,10.60
2023-02-03T12:02:41.654Z,9.60
2023-02-03T12:05:19.952Z,10.30
2023-02-03T12:07:55.000Z,9.40
2023-02-03T12:10:35.852Z,11.60
2023-02-03T12:13:29.623Z,14.30
2023-02-03T12:16:09.231Z,16.10
2023-02-03T12:19:04.379Z,10.70
2023-02-03T12:21:36.031Z,8.20
2023-02-03T12:24:28.670Z,7.20
2023-02-03T12:27:28.589Z,7.30
2023-02-03T12:30:09.766Z,7.10
2023-02-03T12:32:42.957Z,6.70
2023-02-03T12:35:31.887Z,7.00
2023-02-03T12:38:07.246Z,6.60
2023-02-03T12:40:40.142Z,7.50
2023-02-03T12:43:37.948Z,7.70
2023-02-03T12:46:22.876Z,6.90
2023-02-03T12:49:11.031Z,9.00
2023-02-03T12:51:45.136Z,8.40
2023-02-03T12:54:25.799Z,8.60
2023-02-03T12:56:55.814Z,8.60
2023-02-03T12:59:26.109Z,8.10
2023-02-03T13:01:59.165Z,6.90
2023-02-03T13:04:37.952Z,6.80
2023-02-03T13:07:17.690Z,7.10
2023-02-03T13:09:58.362Z,7.50
2023-02-03T13:12:38.093Z,7.30
2023-02-03T13:15:21.334Z,7.60
2023-02-03T13:18:05.884Z,8.20
2023-02-03T13:20:37.182Z,7.10
2023-02-03T13:23:11.349Z,8.40
2023-02-03T13:25:47.511Z,7.90
2023-02-03T13:28:25.819Z,6.60
2023-02-03T13:31:17.627Z,8.20
2023-02-03T13:36:39.397Z,7.30
2023-02-03T13:39:33.270Z,9.10
2023-02-03T13:42:31.551Z,8.30
2023-02-03T13:45:05.355Z,8.70
2023-02-03T13:47:34.260Z,8.90
2023-02-03T13:50:24.819Z,8.40
2023-02-03T13:53:15.305Z,9.50
2023-02-03T13:55:52.319Z,9.10
2023-02-03T13:58:32.578Z,10.20
2023-02-03T14:01:05.098Z,9.60
2023-02-03T14:03:37.636Z,13.10
2023-02-03T14:06:32.015Z,13.30
2023-02-03T14:09:02.153Z,14.70
2023-02-03T14:11:34.725Z,11.20
2023-02-03T14:14:12.920Z,11.90
2023-02-03T14:16:49.173Z,13.70
2023-02-03T14:19:30.469Z,12.60
2023-02-03T14:22:08.666Z,11.40
2023-02-03T14:24:43.102Z,10.40
2023-02-03T14:27:23.230Z,11.20
2023-02-03T14:30:14.001Z,11.60
2023-02-03T14:32:50.930Z,9.80
2023-02-03T14:35:33.597Z,9.60
2023-02-03T14:38:04.781Z,10.00
2023-02-03T14:40:41.123Z,9.40
2023-02-03T14:43:28.545Z,11.30
2023-02-03T14:46:12.796Z,11.70
2023-02-03T14:49:07.315Z,11.20
2023-02-03T14:52:14.420Z,12.20
2023-02-03T14:55:10.730Z,11.80
2023-02-03T14:57:50.834Z,10.30
2023-02-03T15:00:20.407Z,10.50
2023-02-03T15:03:09.564Z,10.30
2023-02-03T15:05:43.402Z,9.70
2023-02-03T15:08:35.804Z,9.80
2023-02-03T15:11:33.194Z,9.60
2023-02-03T15:14:33.592Z,9.90
2023-02-03T15:17:04.057Z,11.40
2023-02-03T15:19:34.585Z,12.60
2023-02-03T15:22:03.568Z,10.70
2023-02-03T15:24:36.296Z,11.40
2023-02-03T15:27:05.515Z,10.90
2023-02-03T15:29:34.917Z,9.90
2023-02-03T15:32:37.194Z,9.50
2023-02-03T15:35:07.667Z,10.50
2023-02-03T15:37:46.972Z,12.40
2023-02-03T15:43:25.077Z,13.00
2023-02-03T15:46:29.557Z,13.70
2023-02-03T15:49:03.122Z,13.60
2023-02-03T15:51:40.915Z,13.20
2023-02-03T15:58:03.466Z,13.60
2023-02-03T16:00:38.615Z,13.20
2023-02-03T16:03:16.940Z,14.00
2023-02-03T16:05:49.109Z,13.10
2023-02-03T16:08:29.573Z,12.80
2023-02-03T16:11:00.189Z,12.90
2023-02-03T16:13:34.186Z,16.60
2023-02-03T16:16:18.679Z,20.00
2023-02-03T16:18:58.837Z,15.90
2023-02-03T16:21:43.558Z,17.60
2023-02-03T16:24:48.902Z,15.50
2023-02-03T16:27:33.653Z,15.80
2023-02-03T16:30:24.480Z,14.30
2023-02-03T16:33:35.272Z,11.80
2023-02-03T16:36:31.273Z,16.90
2023-02-03T16:39:21.066Z,16.00
2023-02-03T16:42:08.893Z,17.70
2023-02-03T16:44:56.715Z,17.30
2023-02-03T16:47:50.075Z,14.10
2023-02-03T16:50:40.047Z,14.30
2023-02-03T16:53:20.379Z,12.90
2023-02-03T16:55:49.616Z,11.80
2023-02-03T16:58:19.170Z,11.80
2023-02-03T17:00:50.560Z,10.80
2023-02-03T17:03:21.594Z,12.70
2023-02-03T17:05:51.118Z,11.60
2023-02-03T17:08:21.856Z,13.70
2023-02-03T17:10:51.460Z,16.30
2023-02-03T17:13:21.497Z,17.50
2023-02-03T17:15:53.148Z,17.70
2023-02-03T17:18:22.559Z,17.10
2023-02-03T17:20:51.628Z,16.80
2023-02-03T17:23:20.163Z,16.20
2023-02-03T17:25:50.071Z,20.30
2023-02-03T17:28:19.041Z,23.60
2023-02-03T17:30:57.107Z,37.70
2023-02-03T17:33:27.958Z,30.40
2023-02-03T17:36:05.960Z,27.10
2023-02-03T17:38:38.240Z,25.30
2023-02-03T17:55:33.426Z,23.50
2023-02-03T17:58:04.460Z,25.00
2023-02-03T18:00:33.427Z,22.60
2023-02-03T18:03:02.643Z,21.70
2023-02-03T18:05:33.166Z,20.80
2023-02-03T18:08:09.082Z,17.50
2023-02-03T18:10:45.523Z,15.20
2023-02-03T18:13:15.396Z,14.30
2023-02-03T18:15:44.392Z,15.90
2023-02-03T18:18:15.018Z,13.10
2023-02-03T18:20:44.111Z,14.40
2023-02-03T18:23:13.125Z,13.40
2023-02-03T18:25:42.534Z,12.60
2023-02-03T18:28:58.085Z,11.50
2023-02-03T18:31:27.480Z,10.60
2023-02-03T18:33:56.893Z,11.00
2023-02-03T18:36:26.086Z,10.80
2023-02-03T18:38:55.691Z,10.10
2023-02-03T18:41:25.306Z,10.50
2023-02-03T18:43:54.660Z,11.00
2023-02-03T18:46:30.370Z,11.10
2023-02-03T18:49:00.385Z,10.40
2023-02-03T18:51:29.803Z,10.30
2023-02-03T18:53:59.399Z,10.30
2023-02-03T18:56:35.501Z,13.00
2023-02-03T18:59:07.125Z,12.30
2023-02-03T19:01:36.671Z,13.70
2023-02-03T19:04:05.920Z,11.60
2023-02-03T19:06:35.488Z,10.80
2023-02-03T19:09:06.418Z,9.70
2023-02-03T19:11:35.392Z,9.40
2023-02-03T19:14:04.856Z,9.00
2023-02-03T19:16:39.069Z,10.00
2023-02-03T19:19:08.577Z,10.00
2023-02-03T19:21:38.184Z,9.10
2023-02-03T19:24:07.487Z,8.80
2023-02-03T19:26:36.626Z,8.80
2023-02-03T19:29:05.685Z,8.90
2023-02-03T19:31:36.085Z,7.60
2023-02-03T19:34:06.123Z,8.30
2023-02-03T19:36:35.525Z,9.00
2023-02-03T19:39:04.921Z,7.50
2023-02-03T19:41:36.989Z,7.40
2023-02-03T19:44:06.598Z,7.60
2023-02-03T19:46:42.116Z,7.00
2023-02-03T19:49:15.793Z,8.10
2023-02-03T19:51:44.948Z,7.10
2023-02-03T19:54:15.577Z,7.40
2023-02-03T19:56:47.694Z,7.90
2023-02-03T19:59:16.964Z,7.90
2023-02-03T20:01:46.092Z,7.30
2023-02-03T20:04:15.969Z,8.20
2023-02-03T20:06:45.247Z,7.30
2023-02-03T20:09:14.955Z,7.60
2023-02-03T20:11:44.054Z,8.20
2023-02-03T20:14:15.724Z,9.70
2023-02-03T20:16:51.184Z,8.40
2023-02-03T20:19:20.466Z,9.60
2023-02-03T20:21:50.058Z,8.60
2023-02-03T20:24:19.028Z,8.80
2023-02-03T20:26:48.765Z,10.70
2023-02-03T20:29:18.685Z,9.20
2023-02-03T20:31:47.827Z,9.30
2023-02-03T20:34:17.377Z,8.70
2023-02-03T20:36:47.001Z,8.20
2023-02-03T20:39:19.672Z,8.20
2023-02-03T20:41:49.883Z,8.20
2023-02-03T20:44:19.898Z,10.80
2023-02-03T20:46:49.364Z,11.30
2023-02-03T20:49:20.137Z,11.00
2023-02-03T20:51:49.133Z,9.70
2023-02-03T20:54:21.941Z,11.10
2023-02-03T20:56:51.316Z,12.40
2023-02-03T20:59:20.425Z,9.70
2023-02-03T21:01:51.571Z,10.00
2023-02-03T21:04:39.136Z,9.10
2023-02-03T21:07:16.784Z,10.10
2023-02-03T21:09:47.990Z,8.70
2023-02-03T21:12:17.482Z,8.20
2023-02-03T21:14:49.997Z,10.70
2023-02-03T21:17:24.545Z,9.00
2023-02-03T21:19:54.946Z,8.90
2023-02-03T21:22:27.290Z,7.50
2023-02-03T21:24:59.803Z,7.90
2023-02-03T21:27:29.227Z,9.30
2023-02-03T21:29:59.492Z,8.70
2023-02-03T21:32:38.663Z,9.10
2023-02-03T21:35:25.166Z,9.00
2023-02-03T21:37:57.549Z,9.00
2023-02-03T21:40:27.873Z,8.20
2023-02-03T21:42:57.258Z,8.80
2023-02-03T21:45:37.252Z,8.70
2023-02-03T21:48:40.183Z,9.30
2023-02-03T21:51:23.937Z,9.20
2023-02-03T21:54:02.880Z,8.60
2023-02-03T21:56:38.020Z,8.00
2023-02-03T21:59:24.092Z,6.80
2023-02-03T22:01:57.895Z,5.80
2023-02-03T22:04:28.775Z,4.50
2023-02-03T22:06:57.621Z,4.00
2023-02-03T22:09:27.550Z,4.40
2023-02-03T22:12:16.199Z,5.40
2023-02-03T22:14:44.977Z,5.50
2023-02-03T22:17:15.406Z,6.10
2023-02-03T22:19:44.426Z,5.50
2023-02-03T22:22:13.898Z,6.10
2023-02-03T22:24:42.686Z,4.20
2023-02-03T22:27:11.585Z,6.10
2023-02-03T22:29:40.876Z,6.90
2023-02-03T22:32:09.768Z,6.50
2023-02-03T22:34:38.553Z,7.00
2023-02-03T22:37:07.446Z,6.00
2023-02-03T22:39:36.538Z,7.20
2023-02-03T22:42:05.529Z,8.40
2023-02-03T22:44:34.934Z,8.40
2023-02-03T22:47:03.719Z,8.00
2023-02-03T22:49:33.429Z,10.00
2023-02-03T22:52:02.838Z,10.00
2023-02-03T22:54:35.512Z,10.10
2023-02-03T22:57:04.502Z,10.90
2023-02-03T22:59:33.701Z,10.10
2023-02-03T23:02:02.770Z,11.30
2023-02-03T23:04:31.859Z,10.90
2023-02-03T23:07:00.884Z,12.20
2023-02-03T23:09:29.987Z,11.40
2023-02-03T23:11:58.765Z,10.00
2023-02-03T23:14:28.805Z,11.90
2023-02-03T23:16:57.782Z,10.30
2023-02-03T23:19:26.786Z,10.50
2023-02-03T23:21:56.076Z,10.50
2023-02-03T23:24:24.954Z,10.00
2023-02-03T23:26:53.953Z,8.90
2023-02-03T23:29:22.654Z,8.90
2023-02-03T23:31:52.003Z,9.50
2023-02-03T23:34:39.359Z,10.00
2023-02-03T23:37:08.869Z,9.00
2023-02-03T23:39:37.965Z,8.70
2023-02-03T23:42:06.756Z,6.90
2023-02-03T23:44:35.850Z,7.60
2023-02-03T23:47:05.150Z,7.60
2023-02-03T23:49:34.134Z,6.10
2023-02-03T23:52:03.254Z,6.40
2023-02-03T23:54:35.198Z,6.40
2023-02-03T23:57:05.131Z,8.00
2023-02-03T23:59:36.765Z,7.90
